Time;durP1;ratioP1;P1;durP2;ratioP2;P2;SDS_P1;SDS_P2;PMS_P1;PMS_P2;Temp;Humidity;BMP_temperature;BMP_pressure;BME280_temperature;BME280_humidity;BME280_pressure;Samples;Min_cycle;Max_cycle;Signal;HPM_P1;HPM_P2
2023/09/30 00:01:52;;;;;;;5.47;1.65;;;;;;;;;;5033647;28;20163;-67
2023/09/30 00:04:17;;;;;;;6.05;1.40;;;;;;;;;;5031664;28;20025;-68
2023/09/30 00:06:42;;;;;;;8.43;2.00;;;;;;;;;;5031449;28;20040;-67
2023/09/30 00:09:07;;;;;;;5.20;1.42;;;;;;;;;;5030950;28;20096;-66
2023/09/30 00:11:33;;;;;;;8.98;1.95;;;;;;;;;;5031523;28;20088;-64
2023/09/30 00:13:58;;;;;;;10.95;1.80;;;;;;;;;;5030739;28;20105;-67
2023/09/30 00:16:23;;;;;;;6.65;1.70;;;;;;;;;;5030370;28;20171;-66
2023/09/30 00:18:48;;;;;;;8.15;1.70;;;;;;;;;;5032048;28;20075;-67
2023/09/30 00:21:15;;;;;;;5.07;1.17;;;;;;;;;;5024285;28;20112;-66
2023/09/30 00:23:40;;;;;;;8.52;1.58;;;;;;;;;;5030051;28;20055;-65
2023/09/30 00:26:05;;;;;;;11.98;1.98;;;;;;;;;;5032213;28;20041;-66
2023/09/30 00:28:30;;;;;;;10.18;1.40;;;;;;;;;;5032757;28;20092;-66
2023/09/30 00:30:55;;;;;;;12.33;1.77;;;;;;;;;;5032438;28;20384;-65
2023/09/30 00:33:21;;;;;;;7.57;1.98;;;;;;;;;;5036758;28;20258;-66
2023/09/30 00:35:46;;;;;;;7.82;1.63;;;;;;;;;;5029671;28;20025;-66
2023/09/30 00:38:11;;;;;;;10.88;1.90;;;;;;;;;;5030482;28;20460;-66
2023/09/30 00:40:37;;;;;;;6.10;1.40;;;;;;;;;;5031106;28;20097;-65
2023/09/30 00:43:02;;;;;;;13.02;1.83;;;;;;;;;;5031351;28;20013;-65
2023/09/30 00:45:28;;;;;;;10.45;2.17;;;;;;;;;;5030631;28;20022;-65
2023/09/30 00:47:53;;;;;;;10.85;2.30;;;;;;;;;;5030890;28;20018;-64
2023/09/30 00:50:24;;;;;;;13.32;1.88;;;;;;;;;;5030695;28;20397;-66
2023/09/30 00:52:50;;;;;;;7.25;1.90;;;;;;;;;;5028190;28;20496;-65
2023/09/30 00:55:16;;;;;;;9.43;1.70;;;;;;;;;;5030388;28;20036;-65
2023/09/30 00:57:43;;;;;;;5.70;1.77;;;;;;;;;;5030651;28;20362;-65
2023/09/30 01:00:11;;;;;;;8.02;1.65;;;;;;;;;;5029515;28;20401;-66
2023/09/30 01:02:38;;;;;;;8.48;1.90;;;;;;;;;;5021020;28;20017;-64
2023/09/30 01:05:03;;;;;;;8.10;2.20;;;;;;;;;;5027615;28;20041;-64
2023/09/30 01:07:28;;;;;;;14.10;2.30;;;;;;;;;;5028948;28;20025;-66
2023/09/30 01:09:54;;;;;;;16.88;2.33;;;;;;;;;;5029477;28;20025;-66
2023/09/30 01:12:19;;;;;;;9.25;1.92;;;;;;;;;;5029481;28;20013;-65
2023/09/30 01:14:44;;;;;;;10.05;1.75;;;;;;;;;;5028241;28;20393;-64
2023/09/30 01:17:13;;;;;;;9.50;1.90;;;;;;;;;;5029408;28;20481;-66
2023/09/30 01:19:38;;;;;;;9.93;2.05;;;;;;;;;;5019706;28;20014;-65
2023/09/30 01:22:04;;;;;;;7.13;1.52;;;;;;;;;;5026158;28;20040;-65
2023/09/30 01:24:29;;;;;;;7.68;1.85;;;;;;;;;;5030481;28;20105;-65
2023/09/30 01:26:55;;;;;;;9.30;2.10;;;;;;;;;;5030363;28;20465;-65
2023/09/30 01:29:21;;;;;;;8.35;1.98;;;;;;;;;;5028969;28;20020;-66
2023/09/30 01:31:47;;;;;;;11.60;2.25;;;;;;;;;;5026996;28;20014;-66
2023/09/30 01:34:13;;;;;;;9.63;2.53;;;;;;;;;;5030936;28;20447;-66
2023/09/30 01:36:38;;;;;;;7.50;2.50;;;;;;;;;;5031489;28;20145;-66
2023/09/30 01:39:04;;;;;;;9.13;2.72;;;;;;;;;;5029193;28;20017;-62
2023/09/30 01:41:29;;;;;;;10.77;2.13;;;;;;;;;;5028550;28;20055;-66
2023/09/30 01:43:54;;;;;;;9.25;2.38;;;;;;;;;;5026889;28;20013;-66
2023/09/30 01:46:19;;;;;;;10.82;3.17;;;;;;;;;;5027011;28;20029;-66
2023/09/30 01:48:44;;;;;;;13.85;3.42;;;;;;;;;;5027731;28;20025;-66
2023/09/30 01:51:10;;;;;;;12.05;2.40;;;;;;;;;;5028330;28;20037;-65
2023/09/30 01:53:35;;;;;;;12.10;2.50;;;;;;;;;;5027065;28;20157;-66
2023/09/30 01:56:06;;;;;;;13.82;2.80;;;;;;;;;;5028708;28;20473;-65
2023/09/30 01:58:31;;;;;;;13.93;3.08;;;;;;;;;;5027731;28;20025;-63
2023/09/30 02:01:02;;;;;;;11.98;3.75;;;;;;;;;;5029488;28;20043;-67
2023/09/30 02:03:29;;;;;;;13.30;2.80;;;;;;;;;;5028952;28;20131;-67
2023/09/30 02:05:54;;;;;;;11.48;2.53;;;;;;;;;;5029279;28;20036;-65
2023/09/30 02:08:19;;;;;;;19.48;3.45;;;;;;;;;;5028648;28;20021;-66
2023/09/30 02:10:44;;;;;;;10.00;2.90;;;;;;;;;;5029302;28;20014;-67
2023/09/30 02:13:09;;;;;;;13.27;2.50;;;;;;;;;;5011083;28;20574;-67
2023/09/30 02:15:35;;;;;;;10.73;2.50;;;;;;;;;;5029491;28;20456;-66
2023/09/30 02:18:01;;;;;;;17.30;2.88;;;;;;;;;;5029428;28;20396;-66
2023/09/30 02:20:30;;;;;;;10.00;2.75;;;;;;;;;;5029590;28;20025;-67
2023/09/30 02:22:55;;;;;;;12.20;2.72;;;;;;;;;;5012596;28;20432;-67
2023/09/30 02:25:20;;;;;;;7.60;2.45;;;;;;;;;;5026670;28;20017;-66
2023/09/30 02:27:45;;;;;;;16.98;2.70;;;;;;;;;;5029535;28;20361;-64
2023/09/30 02:30:14;;;;;;;13.48;2.67;;;;;;;;;;5023062;28;20117;-64
2023/09/30 02:32:40;;;;;;;9.38;2.55;;;;;;;;;;5011575;28;20016;-65
2023/09/30 02:35:05;;;;;;;10.27;2.63;;;;;;;;;;5028198;28;20021;-65
2023/09/30 02:37:34;;;;;;;14.00;3.13;;;;;;;;;;5029082;28;20534;-64
2023/09/30 02:39:59;;;;;;;11.32;3.05;;;;;;;;;;5028906;28;20023;-64
2023/09/30 02:42:24;;;;;;;13.40;3.60;;;;;;;;;;5027778;28;20100;-65
2023/09/30 02:44:49;;;;;;;9.50;2.67;;;;;;;;;;5028020;28;20531;-66
2023/09/30 02:47:15;;;;;;;15.23;2.97;;;;;;;;;;5027453;28;20027;-67
2023/09/30 02:49:40;;;;;;;18.27;3.03;;;;;;;;;;5028503;28;20017;-66
2023/09/30 02:52:05;;;;;;;11.25;3.72;;;;;;;;;;5028042;28;20010;-66
2023/09/30 02:54:31;;;;;;;14.88;3.00;;;;;;;;;;5028141;28;20045;-66
2023/09/30 02:56:56;;;;;;;20.45;3.15;;;;;;;;;;5028583;28;20029;-66
2023/09/30 02:59:22;;;;;;;14.30;3.35;;;;;;;;;;5032918;28;20025;-66
2023/09/30 03:01:47;;;;;;;14.32;4.07;;;;;;;;;;5032355;28;20480;-65
2023/09/30 03:04:12;;;;;;;15.63;3.25;;;;;;;;;;5032909;28;20021;-63
2023/09/30 03:06:38;;;;;;;11.73;2.80;;;;;;;;;;5032759;28;20044;-66
2023/09/30 03:09:04;;;;;;;12.10;3.25;;;;;;;;;;5032930;28;20489;-65
2023/09/30 03:11:29;;;;;;;11.15;3.15;;;;;;;;;;5030487;28;20096;-67
2023/09/30 03:13:55;;;;;;;16.27;3.40;;;;;;;;;;5031242;28;20025;-66
2023/09/30 03:16:20;;;;;;;13.63;3.17;;;;;;;;;;5030505;28;20099;-65
2023/09/30 03:18:45;;;;;;;10.05;3.03;;;;;;;;;;5029278;28;20025;-65
2023/09/30 03:21:14;;;;;;;11.82;3.30;;;;;;;;;;5032910;28;20036;-65
2023/09/30 03:23:40;;;;;;;16.52;3.60;;;;;;;;;;5031144;28;20052;-65
2023/09/30 03:26:09;;;;;;;14.77;3.55;;;;;;;;;;5013619;28;20053;-66
2023/09/30 03:28:35;;;;;;;20.88;3.92;;;;;;;;;;5027743;28;20020;-69
2023/09/30 03:31:06;;;;;;;14.93;3.80;;;;;;;;;;5025094;28;20017;-64
2023/09/30 03:33:32;;;;;;;15.55;3.38;;;;;;;;;;5037169;28;20029;-64
2023/09/30 03:35:58;;;;;;;16.92;4.25;;;;;;;;;;5029824;28;20048;-67
2023/09/30 03:38:23;;;;;;;11.55;3.65;;;;;;;;;;5032948;28;20472;-63
2023/09/30 03:40:50;;;;;;;16.48;3.72;;;;;;;;;;5029091;28;20105;-67
2023/09/30 03:43:15;;;;;;;9.93;3.60;;;;;;;;;;5030973;28;20024;-66
2023/09/30 03:45:41;;;;;;;13.07;3.17;;;;;;;;;;5028669;28;20105;-66
2023/09/30 03:48:06;;;;;;;13.20;3.50;;;;;;;;;;5030977;28;20089;-66
2023/09/30 03:50:32;;;;;;;18.55;3.80;;;;;;;;;;5030719;28;20542;-67
2023/09/30 03:53:04;;;;;;;16.23;3.85;;;;;;;;;;5030762;28;20020;-66
2023/09/30 03:55:31;;;;;;;10.88;2.92;;;;;;;;;;5029307;28;20436;-69
2023/09/30 03:57:57;;;;;;;15.30;3.38;;;;;;;;;;5028422;28;20627;-65
2023/09/30 04:00:22;;;;;;;15.23;3.45;;;;;;;;;;5028478;28;20200;-68
2023/09/30 04:02:52;;;;;;;17.13;3.67;;;;;;;;;;5029801;28;20017;-66
2023/09/30 04:05:18;;;;;;;14.80;3.72;;;;;;;;;;5025575;28;20551;-68
2023/09/30 04:07:43;;;;;;;11.15;3.35;;;;;;;;;;5011695;28;20384;-65
2023/09/30 04:10:09;;;;;;;13.18;3.60;;;;;;;;;;5028061;28;20013;-67
2023/09/30 04:12:35;;;;;;;17.42;3.55;;;;;;;;;;5029658;28;20463;-67
2023/09/30 04:15:00;;;;;;;13.15;3.15;;;;;;;;;;5019724;28;20101;-66
2023/09/30 04:17:26;;;;;;;14.32;3.45;;;;;;;;;;5011605;28;20041;-70
2023/09/30 04:19:52;;;;;;;19.63;3.92;;;;;;;;;;5032311;28;20025;-64
2023/09/30 04:22:18;;;;;;;20.20;3.80;;;;;;;;;;5034375;28;20411;-67
2023/09/30 04:24:44;;;;;;;14.23;3.75;;;;;;;;;;5030587;28;20017;-64
2023/09/30 04:27:09;;;;;;;16.23;3.55;;;;;;;;;;5033838;28;20017;-66
2023/09/30 04:29:34;;;;;;;15.77;3.28;;;;;;;;;;5030048;28;20416;-67
2023/09/30 04:32:00;;;;;;;18.02;4.38;;;;;;;;;;5030956;28;20464;-66
2023/09/30 04:34:27;;;;;;;22.45;3.47;;;;;;;;;;5031644;28;20033;-66
2023/09/30 04:36:52;;;;;;;16.40;3.60;;;;;;;;;;5032705;28;20024;-65
2023/09/30 04:39:17;;;;;;;16.45;4.10;;;;;;;;;;5030777;28;20013;-67
2023/09/30 04:41:43;;;;;;;18.13;3.70;;;;;;;;;;5032409;28;20013;-65
2023/09/30 04:44:11;;;;;;;15.77;3.38;;;;;;;;;;5031672;28;20460;-67
2023/09/30 04:46:40;;;;;;;14.00;3.05;;;;;;;;;;5031127;28;20493;-66
2023/09/30 04:49:05;;;;;;;;;;;;;;;;;;5031725;28;20033;-65
2023/09/30 04:51:33;;;;;;;22.30;3.80;;;;;;;;;;5031313;28;19905;-70
2023/09/30 04:53:59;;;;;;;16.80;3.35;;;;;;;;;;5027100;28;20285;-66
2023/09/30 04:56:25;;;;;;;18.83;2.92;;;;;;;;;;5028354;28;20468;-64
2023/09/30 04:58:50;;;;;;;18.20;3.22;;;;;;;;;;5031274;28;20039;-68
2023/09/30 05:01:18;;;;;;;20.45;3.85;;;;;;;;;;5031224;28;20040;-66
2023/09/30 05:03:44;;;;;;;18.88;3.45;;;;;;;;;;5031458;28;20020;-67
2023/09/30 05:06:09;;;;;;;16.60;4.75;;;;;;;;;;5031086;28;20014;-66
2023/09/30 05:08:35;;;;;;;23.27;3.25;;;;;;;;;;5038386;28;20017;-67
2023/09/30 05:11:00;;;;;;;19.13;3.42;;;;;;;;;;5031788;28;20378;-67
2023/09/30 05:13:25;;;;;;;17.30;3.38;;;;;;;;;;5026721;28;20032;-67
2023/09/30 05:15:51;;;;;;;13.43;3.60;;;;;;;;;;5030929;28;20018;-65
2023/09/30 05:18:16;;;;;;;16.05;4.53;;;;;;;;;;5026463;28;20037;-69
2023/09/30 05:20:42;;;;;;;17.83;4.53;;;;;;;;;;5033587;28;20013;-66
2023/09/30 05:23:07;;;;;;;14.30;4.00;;;;;;;;;;5034066;28;20017;-69
2023/09/30 05:25:32;;;;;;;14.57;3.97;;;;;;;;;;5029978;28;20018;-67
2023/09/30 05:27:57;;;;;;;13.98;4.50;;;;;;;;;;5030225;28;20025;-68
2023/09/30 05:30:23;;;;;;;17.92;3.30;;;;;;;;;;5024178;28;20026;-66
2023/09/30 05:32:48;;;;;;;17.90;3.47;;;;;;;;;;5034365;28;20627;-68
2023/09/30 05:35:14;;;;;;;15.50;3.38;;;;;;;;;;5028174;28;20021;-70
2023/09/30 05:37:40;;;;;;;17.40;3.75;;;;;;;;;;5021461;28;20026;-66
2023/09/30 05:40:16;;;;;;;14.25;2.92;;;;;;;;;;5025048;28;20025;-73
2023/09/30 05:42:43;;;;;;;17.83;4.22;;;;;;;;;;5027758;28;20255;-70
2023/09/30 05:45:09;;;;;;;15.90;3.42;;;;;;;;;;5030082;28;20104;-71
2023/09/30 05:47:34;;;;;;;21.95;6.22;;;;;;;;;;5006970;28;20006;-64
2023/09/30 05:49:59;;;;;;;33.42;10.93;;;;;;;;;;5026894;28;20013;-67
2023/09/30 05:52:25;;;;;;;19.05;4.15;;;;;;;;;;5029860;28;20021;-65
2023/09/30 05:54:50;;;;;;;17.73;3.47;;;;;;;;;;5030030;28;20088;-68
2023/09/30 05:57:15;;;;;;;19.77;3.88;;;;;;;;;;5022184;28;20106;-66
2023/09/30 05:59:46;;;;;;;18.38;2.90;;;;;;;;;;5030031;28;20148;-68
2023/09/30 06:02:12;;;;;;;16.17;3.33;;;;;;;;;;5013002;28;20060;-65
2023/09/30 06:04:37;;;;;;;17.25;3.17;;;;;;;;;;5022530;28;20108;-66
2023/09/30 06:07:02;;;;;;;15.13;3.63;;;;;;;;;;5030016;28;20441;-66
2023/09/30 06:09:30;;;;;;;16.60;3.70;;;;;;;;;;5029170;28;20105;-67
2023/09/30 06:11:55;;;;;;;20.80;4.20;;;;;;;;;;5030099;28;20096;-65
2023/09/30 06:14:21;;;;;;;12.45;3.17;;;;;;;;;;5011217;28;20163;-66
2023/09/30 06:16:47;;;;;;;15.10;4.03;;;;;;;;;;5024561;28;20021;-65
2023/09/30 06:19:12;;;;;;;12.95;2.72;;;;;;;;;;5029268;28;20099;-65
2023/09/30 06:21:39;;;;;;;12.02;3.08;;;;;;;;;;5027693;28;20028;-66
2023/09/30 06:24:05;;;;;;;13.65;2.92;;;;;;;;;;5032909;28;20032;-65
2023/09/30 06:26:30;;;;;;;8.95;2.78;;;;;;;;;;5021316;28;20025;-66
2023/09/30 06:28:56;;;;;;;13.70;3.30;;;;;;;;;;5023985;28;20040;-65
2023/09/30 06:31:24;;;;;;;17.85;3.45;;;;;;;;;;5022702;28;20022;-64
2023/09/30 06:33:49;;;;;;;13.05;3.35;;;;;;;;;;5035204;28;20014;-66
2023/09/30 06:36:15;;;;;;;10.52;3.00;;;;;;;;;;5017808;28;20378;-65
2023/09/30 06:38:44;;;;;;;16.75;3.80;;;;;;;;;;5028913;28;20022;-65
2023/09/30 06:41:15;;;;;;;11.95;2.72;;;;;;;;;;5022385;28;20040;-67
2023/09/30 06:43:40;;;;;;;10.05;3.22;;;;;;;;;;5025091;28;20018;-66
2023/09/30 06:46:12;;;;;;;19.60;3.53;;;;;;;;;;5018441;28;20024;-66
2023/09/30 06:48:41;;;;;;;18.27;3.22;;;;;;;;;;5027104;28;20096;-66
2023/09/30 06:51:06;;;;;;;14.98;2.88;;;;;;;;;;5028914;28;20013;-65
2023/09/30 06:53:31;;;;;;;13.13;3.35;;;;;;;;;;5028630;28;20535;-65
2023/09/30 06:55:56;;;;;;;17.52;4.07;;;;;;;;;;5028634;28;20033;-68
2023/09/30 06:58:22;;;;;;;15.60;3.22;;;;;;;;;;5028712;28;20021;-66
2023/09/30 07:00:51;;;;;;;17.67;3.42;;;;;;;;;;5022266;28;20066;-68
2023/09/30 07:03:17;;;;;;;15.82;3.03;;;;;;;;;;5028448;28;20018;-69
2023/09/30 07:05:42;;;;;;;10.63;2.95;;;;;;;;;;5025690;28;20459;-66
2023/09/30 07:08:08;;;;;;;10.48;2.97;;;;;;;;;;5024770;28;20093;-69
2023/09/30 07:10:33;;;;;;;16.52;2.60;;;;;;;;;;5028477;28;20516;-63
2023/09/30 07:13:02;;;;;;;15.63;2.85;;;;;;;;;;5025778;28;20017;-67
2023/09/30 07:15:27;;;;;;;15.77;2.75;;;;;;;;;;5027223;28;20028;-66
2023/09/30 07:17:52;;;;;;;17.10;3.55;;;;;;;;;;5027476;28;20021;-69
2023/09/30 07:20:18;;;;;;;10.68;2.30;;;;;;;;;;5028179;28;20052;-67
2023/09/30 07:22:43;;;;;;;13.25;2.47;;;;;;;;;;5026381;28;20093;-66
2023/09/30 07:25:08;;;;;;;14.73;2.75;;;;;;;;;;5028673;28;20037;-66
2023/09/30 07:27:33;;;;;;;26.27;3.38;;;;;;;;;;5023887;28;20149;-65
2023/09/30 07:29:59;;;;;;;14.18;2.60;;;;;;;;;;5019349;28;20535;-66
2023/09/30 07:32:24;;;;;;;8.82;2.17;;;;;;;;;;5021878;28;20029;-65
2023/09/30 07:34:50;;;;;;;13.50;3.17;;;;;;;;;;5019547;28;20050;-65
2023/09/30 07:37:17;;;;;;;10.45;2.42;;;;;;;;;;5030121;28;20029;-65
2023/09/30 07:39:42;;;;;;;14.68;3.33;;;;;;;;;;5029851;28;20028;-65
2023/09/30 07:42:11;;;;;;;10.45;2.38;;;;;;;;;;5025504;28;20408;-65
2023/09/30 07:44:37;;;;;;;10.73;2.60;;;;;;;;;;5023194;28;20025;-67
2023/09/30 07:47:03;;;;;;;11.65;2.85;;;;;;;;;;5028307;28;20055;-66
2023/09/30 07:49:32;;;;;;;19.13;3.28;;;;;;;;;;5026158;28;20388;-65
2023/09/30 07:51:57;;;;;;;;;;;;;;;;;;5030598;28;20396;-65
2023/09/30 07:54:23;;;;;;;12.13;2.60;;;;;;;;;;5023482;28;19912;-66
2023/09/30 07:56:49;;;;;;;17.20;3.05;;;;;;;;;;5032575;28;20021;-65
2023/09/30 07:59:15;;;;;;;10.77;2.90;;;;;;;;;;5026974;28;20339;-66
2023/09/30 08:01:40;;;;;;;16.60;3.10;;;;;;;;;;5013813;28;20496;-66
2023/09/30 08:04:08;;;;;;;9.75;2.53;;;;;;;;;;5031578;28;20024;-64
2023/09/30 08:06:34;;;;;;;14.07;2.90;;;;;;;;;;5026819;28;20052;-61
2023/09/30 08:08:59;;;;;;;18.55;2.80;;;;;;;;;;5030667;28;20017;-64
2023/09/30 08:11:27;;;;;;;8.35;2.65;;;;;;;;;;5031804;28;20037;-66
2023/09/30 08:13:56;;;;;;;27.90;3.15;;;;;;;;;;5030783;28;20021;-65
2023/09/30 08:16:21;;;;;;;9.82;2.05;;;;;;;;;;5031220;28;20029;-66
2023/09/30 08:18:46;;;;;;;13.10;2.38;;;;;;;;;;5029102;28;20025;-64
2023/09/30 08:21:11;;;;;;;13.48;2.65;;;;;;;;;;5031481;28;20021;-67
2023/09/30 08:23:38;;;;;;;17.67;3.42;;;;;;;;;;5032182;28;20028;-66
2023/09/30 08:26:05;;;;;;;17.10;3.83;;;;;;;;;;5016697;28;20017;-61
2023/09/30 08:28:30;;;;;;;12.38;2.72;;;;;;;;;;5028380;28;20025;-65
2023/09/30 08:30:58;;;;;;;12.10;2.67;;;;;;;;;;5028271;28;20021;-65
2023/09/30 08:33:24;;;;;;;20.45;3.60;;;;;;;;;;5010153;28;20021;-62
2023/09/30 08:35:50;;;;;;;10.25;2.50;;;;;;;;;;5024608;28;20014;-65
2023/09/30 08:38:15;;;;;;;11.80;2.55;;;;;;;;;;5029638;28;20021;-66
2023/09/30 08:40:41;;;;;;;11.82;2.35;;;;;;;;;;5028647;28;20029;-66
2023/09/30 08:43:11;;;;;;;13.68;2.08;;;;;;;;;;5026916;28;20009;-66
2023/09/30 08:45:39;;;;;;;13.70;2.30;;;;;;;;;;5022505;28;20109;-64
2023/09/30 08:48:05;;;;;;;9.35;1.90;;;;;;;;;;5031762;28;20005;-62
2023/09/30 08:50:31;;;;;;;16.00;3.08;;;;;;;;;;5029238;28;20026;-66
2023/09/30 08:52:56;;;;;;;26.75;2.83;;;;;;;;;;5029653;28;20030;-63
2023/09/30 08:55:23;;;;;;;18.88;2.75;;;;;;;;;;5024052;28;20033;-70
2023/09/30 08:57:49;;;;;;;21.27;2.90;;;;;;;;;;5022928;28;20021;-65
2023/09/30 09:00:16;;;;;;;13.00;2.78;;;;;;;;;;5030914;28;20471;-66
2023/09/30 09:02:41;;;;;;;16.98;2.72;;;;;;;;;;5028330;28;20017;-65
2023/09/30 09:05:07;;;;;;;22.42;3.25;;;;;;;;;;5025483;28;20079;-66
2023/09/30 09:07:33;;;;;;;13.77;2.50;;;;;;;;;;5027835;28;20018;-68
2023/09/30 09:10:05;;;;;;;22.75;2.83;;;;;;;;;;5023699;28;20333;-67
2023/09/30 09:12:30;;;;;;;10.68;2.45;;;;;;;;;;5004483;28;20084;-67
2023/09/30 09:14:55;;;;;;;14.88;2.45;;;;;;;;;;5022426;28;20021;-65
2023/09/30 09:17:22;;;;;;;15.00;2.38;;;;;;;;;;5014354;28;20036;-65
2023/09/30 09:20:09;;;;;;;16.60;3.40;;;;;;;;;;5017758;28;20021;-67
2023/09/30 09:22:38;;;;;;;11.85;1.98;;;;;;;;;;5017087;28;20025;-66
2023/09/30 09:25:04;;;;;;;11.50;2.50;;;;;;;;;;5017138;28;20033;-66
2023/09/30 09:27:33;;;;;;;15.95;2.22;;;;;;;;;;5017197;28;20040;-66
2023/09/30 09:30:01;;;;;;;;;;;;;;;;;;5017343;28;20775;-65
2023/09/30 09:32:27;;;;;;;;;;;;;;;;;;5015307;28;19971;-65
2023/09/30 09:35:00;;;;;;;13.93;1.90;;;;;;;;;;5016714;28;19916;-65
2023/09/30 09:37:25;;;;;;;16.27;2.85;;;;;;;;;;5014858;28;20017;-67
2023/09/30 09:39:55;;;;;;;13.85;2.60;;;;;;;;;;5017868;28;20362;-71
2023/09/30 09:42:28;;;;;;;18.48;2.60;;;;;;;;;;5022753;28;20400;-67
2023/09/30 09:44:57;;;;;;;18.98;2.47;;;;;;;;;;5021669;28;20155;-65
2023/09/30 09:47:23;;;;;;;18.90;2.45;;;;;;;;;;5022401;28;20344;-67
2023/09/30 09:49:50;;;;;;;14.15;2.15;;;;;;;;;;5028775;28;20495;-66
2023/09/30 09:52:16;;;;;;;18.20;2.88;;;;;;;;;;5029286;28;20035;-66
2023/09/30 09:54:43;;;;;;;23.15;2.00;;;;;;;;;;5026146;28;20021;-65
2023/09/30 09:57:09;;;;;;;11.85;2.45;;;;;;;;;;5028926;28;20033;-66
2023/09/30 09:59:35;;;;;;;15.82;2.42;;;;;;;;;;5025589;28;20029;-67
2023/09/30 10:02:02;;;;;;;13.38;1.92;;;;;;;;;;5027852;28;20025;-65
2023/09/30 10:04:28;;;;;;;9.02;2.10;;;;;;;;;;5006575;28;20053;-63
2023/09/30 10:06:53;;;;;;;14.90;1.90;;;;;;;;;;5026608;28;20102;-65
2023/09/30 10:09:20;;;;;;;20.42;2.40;;;;;;;;;;5025868;28;20017;-64
2023/09/30 10:11:45;;;;;;;9.18;2.08;;;;;;;;;;5024647;28;20020;-66
2023/09/30 10:14:29;;;;;;;12.48;2.28;;;;;;;;;;5019417;28;20576;-66
2023/09/30 10:16:55;;;;;;;12.85;1.77;;;;;;;;;;5022674;28;20019;-64
2023/09/30 10:19:22;;;;;;;10.02;1.83;;;;;;;;;;5025290;28;20025;-65
2023/09/30 10:22:06;;;;;;;11.93;2.60;;;;;;;;;;5027109;28;20037;-67
2023/09/30 10:24:31;;;;;;;13.45;2.45;;;;;;;;;;5027032;28;20100;-66
2023/09/30 10:27:16;;;;;;;12.40;2.30;;;;;;;;;;5027229;28;20112;-62
2023/09/30 10:29:42;;;;;;;13.32;2.45;;;;;;;;;;5017258;28;20017;-64
2023/09/30 10:32:07;;;;;;;17.45;2.42;;;;;;;;;;5026742;28;20439;-64
2023/09/30 10:34:33;;;;;;;9.32;1.77;;;;;;;;;;5027839;28;20032;-65
2023/09/30 10:36:58;;;;;;;15.02;2.45;;;;;;;;;;5028876;28;20021;-66
2023/09/30 10:39:42;;;;;;;14.77;2.42;;;;;;;;;;5027786;28;20075;-64
2023/09/30 10:42:09;;;;;;;15.68;2.15;;;;;;;;;;5025957;28;20090;-66
2023/09/30 10:44:35;;;;;;;10.73;2.58;;;;;;;;;;5026405;28;20040;-66
2023/09/30 10:47:19;;;;;;;11.35;1.85;;;;;;;;;;5028388;28;20014;-66
2023/09/30 10:49:44;;;;;;;7.60;1.73;;;;;;;;;;5022024;28;20066;-64
2023/09/30 10:52:10;;;;;;;9.55;2.00;;;;;;;;;;5024621;28;20109;-63
2023/09/30 10:54:35;;;;;;;10.52;1.95;;;;;;;;;;5029233;23;20147;-66
2023/09/30 10:57:00;;;;;;;13.55;2.70;;;;;;;;;;5007029;28;20013;-67
2023/09/30 10:59:27;;;;;;;14.93;2.42;;;;;;;;;;5001721;28;20066;-67
2023/09/30 11:01:53;;;;;;;15.77;2.30;;;;;;;;;;4988390;28;20726;-66
2023/09/30 11:04:19;;;;;;;13.15;1.98;;;;;;;;;;5015397;28;20029;-68
2023/09/30 11:06:44;;;;;;;9.38;1.77;;;;;;;;;;5023247;28;20139;-66
2023/09/30 11:09:15;;;;;;;11.95;2.40;;;;;;;;;;5021169;28;20021;-66
2023/09/30 11:11:48;;;;;;;11.45;1.98;;;;;;;;;;5026507;28;20017;-68
2023/09/30 11:14:31;;;;;;;19.58;2.45;;;;;;;;;;5026021;28;20087;-67
2023/09/30 11:17:01;;;;;;;12.45;2.38;;;;;;;;;;5025505;28;20101;-68
2023/09/30 11:19:33;;;;;;;13.23;1.83;;;;;;;;;;5028005;28;20029;-67
2023/09/30 11:21:59;;;;;;;10.63;1.98;;;;;;;;;;5025284;28;20427;-66
2023/09/30 11:24:25;;;;;;;12.07;2.60;;;;;;;;;;5027779;28;20028;-67
2023/09/30 11:26:53;;;;;;;15.23;2.17;;;;;;;;;;5028420;28;20025;-65
2023/09/30 11:29:20;;;;;;;10.93;2.53;;;;;;;;;;5027393;28;20033;-67
2023/09/30 11:31:47;;;;;;;9.45;1.83;;;;;;;;;;5028951;28;20252;-68
2023/09/30 11:34:13;;;;;;;11.85;2.22;;;;;;;;;;5028067;28;20032;-66
2023/09/30 11:36:45;;;;;;;10.73;1.90;;;;;;;;;;5024202;28;20025;-68
2023/09/30 11:39:20;;;;;;;7.03;1.83;;;;;;;;;;5024900;28;20025;-67
2023/09/30 11:41:46;;;;;;;9.07;2.10;;;;;;;;;;5019397;28;20024;-66
2023/09/30 11:44:12;;;;;;;17.23;1.83;;;;;;;;;;5025522;28;20403;-68
2023/09/30 11:47:11;;;;;;;9.05;2.28;;;;;;;;;;5029747;28;20056;-68
2023/09/30 11:49:38;;;;;;;11.60;2.30;;;;;;;;;;4981128;28;20029;-65
2023/09/30 11:52:04;;;;;;;11.80;1.80;;;;;;;;;;5024644;28;20479;-66
2023/09/30 11:54:30;;;;;;;9.25;1.90;;;;;;;;;;5029935;28;20116;-66
2023/09/30 11:56:55;;;;;;;11.57;1.90;;;;;;;;;;5030273;28;20036;-68
2023/09/30 11:59:22;;;;;;;10.32;1.90;;;;;;;;;;5029000;28;20021;-68
2023/09/30 12:01:48;;;;;;;11.75;1.73;;;;;;;;;;5007771;28;20105;-66
2023/09/30 12:04:13;;;;;;;8.32;1.42;;;;;;;;;;5026605;28;20362;-67
2023/09/30 12:06:39;;;;;;;5.72;1.77;;;;;;;;;;5028321;28;20036;-65
2023/09/30 12:09:05;;;;;;;9.38;1.88;;;;;;;;;;5023257;28;20532;-69
2023/09/30 12:11:31;;;;;;;10.70;1.90;;;;;;;;;;5028753;28;20504;-66
2023/09/30 12:13:56;;;;;;;8.63;1.40;;;;;;;;;;5029584;28;20457;-65
2023/09/30 12:16:21;;;;;;;13.50;1.75;;;;;;;;;;5027803;28;20022;-67
2023/09/30 12:18:46;;;;;;;9.70;2.25;;;;;;;;;;5024477;28;20186;-66
2023/09/30 12:21:13;;;;;;;10.20;2.20;;;;;;;;;;5021711;28;20476;-67
2023/09/30 12:23:39;;;;;;;9.93;2.22;;;;;;;;;;5026092;28;20033;-65
2023/09/30 12:26:05;;;;;;;10.15;1.92;;;;;;;;;;5027976;28;20208;-70
2023/09/30 12:28:32;;;;;;;7.72;2.00;;;;;;;;;;5008882;28;20018;-66
2023/09/30 12:30:57;;;;;;;11.63;2.22;;;;;;;;;;5021913;28;20020;-67
2023/09/30 12:33:23;;;;;;;9.60;2.13;;;;;;;;;;5028320;28;20017;-67
2023/09/30 12:35:48;;;;;;;13.32;2.35;;;;;;;;;;5027010;28;20432;-66
2023/09/30 12:38:16;;;;;;;12.63;1.58;;;;;;;;;;5031239;28;20096;-67
2023/09/30 12:40:41;;;;;;;10.43;2.05;;;;;;;;;;5028749;28;20009;-67
2023/09/30 12:43:06;;;;;;;9.50;1.90;;;;;;;;;;5029227;28;20035;-66
2023/09/30 12:45:31;;;;;;;11.52;2.22;;;;;;;;;;5025902;28;20029;-67
2023/09/30 12:47:57;;;;;;;13.40;2.30;;;;;;;;;;5023474;28;20040;-66
2023/09/30 12:50:22;;;;;;;11.48;2.13;;;;;;;;;;5026744;28;20100;-66
2023/09/30 12:52:47;;;;;;;11.70;2.05;;;;;;;;;;5028453;28;20013;-67
2023/09/30 12:55:13;;;;;;;9.18;1.83;;;;;;;;;;5028784;28;20111;-67
2023/09/30 12:57:39;;;;;;;15.45;2.47;;;;;;;;;;5024196;28;20418;-65
2023/09/30 13:00:09;;;;;;;12.65;1.95;;;;;;;;;;5028752;28;20021;-66
2023/09/30 13:02:34;;;;;;;12.68;2.15;;;;;;;;;;5028454;28;20028;-67
2023/09/30 13:04:59;;;;;;;8.10;1.85;;;;;;;;;;5025128;28;20093;-66
2023/09/30 13:07:24;;;;;;;6.82;1.70;;;;;;;;;;5019232;28;20094;-67
2023/09/30 13:09:50;;;;;;;7.22;2.03;;;;;;;;;;5029173;28;20013;-67
2023/09/30 13:12:16;;;;;;;11.30;2.20;;;;;;;;;;5029323;28;20013;-65
2023/09/30 13:14:42;;;;;;;11.52;1.65;;;;;;;;;;5028310;28;20109;-67
2023/09/30 13:17:07;;;;;;;14.80;1.85;;;;;;;;;;5027141;28;20155;-64
2023/09/30 13:19:33;;;;;;;9.73;1.70;;;;;;;;;;5023866;28;20026;-67
2023/09/30 13:21:58;;;;;;;9.95;1.70;;;;;;;;;;5027871;28;20029;-65
2023/09/30 13:24:23;;;;;;;9.45;1.98;;;;;;;;;;5030551;28;20501;-65
2023/09/30 13:26:48;;;;;;;13.57;2.10;;;;;;;;;;5025132;28;20009;-65
2023/09/30 13:29:16;;;;;;;10.68;1.63;;;;;;;;;;5021724;28;20022;-67
2023/09/30 13:31:41;;;;;;;7.07;1.80;;;;;;;;;;5022732;28;20017;-66
2023/09/30 13:34:06;;;;;;;7.78;1.98;;;;;;;;;;5032703;28;20380;-66
2023/09/30 13:36:32;;;;;;;14.13;2.00;;;;;;;;;;5028086;28;20074;-68
2023/09/30 13:38:58;;;;;;;12.07;2.20;;;;;;;;;;5027971;28;20068;-66
2023/09/30 13:41:23;;;;;;;24.52;3.50;;;;;;;;;;5027786;28;20028;-66
2023/09/30 13:43:48;;;;;;;8.18;1.75;;;;;;;;;;5028868;28;20111;-67
2023/09/30 13:46:13;;;;;;;10.07;1.60;;;;;;;;;;5027790;28;20013;-65
2023/09/30 13:48:39;;;;;;;7.65;1.80;;;;;;;;;;5009818;28;20030;-66
2023/09/30 13:51:07;;;;;;;8.68;1.55;;;;;;;;;;5028019;28;20014;-66
2023/09/30 13:53:32;;;;;;;;;;;;;;;;;;5028216;28;20029;-67
2023/09/30 13:55:57;;;;;;;10.75;1.80;;;;;;;;;;5026900;28;20067;-66
2023/09/30 13:58:23;;;;;;;12.30;2.03;;;;;;;;;;5023643;28;20206;-66
2023/09/30 14:00:49;;;;;;;8.80;1.85;;;;;;;;;;5021148;28;20170;-66
2023/09/30 14:03:14;;;;;;;10.20;1.60;;;;;;;;;;5028107;28;20528;-66
2023/09/30 14:05:40;;;;;;;10.05;1.70;;;;;;;;;;5027127;28;20036;-67
2023/09/30 14:08:07;;;;;;;9.80;2.00;;;;;;;;;;5028382;28;20456;-68
2023/09/30 14:10:32;;;;;;;5.50;1.45;;;;;;;;;;5023447;28;20052;-67
2023/09/30 14:12:58;;;;;;;8.73;2.17;;;;;;;;;;5020482;28;20401;-68
2023/09/30 14:15:23;;;;;;;10.13;2.00;;;;;;;;;;5024637;28;20097;-66
2023/09/30 14:17:48;;;;;;;7.93;2.22;;;;;;;;;;5028125;28;20029;-65
2023/09/30 14:20:14;;;;;;;9.13;1.37;;;;;;;;;;5023318;28;20048;-67
2023/09/30 14:22:39;;;;;;;8.40;1.63;;;;;;;;;;5029684;28;20262;-67
2023/09/30 14:25:05;;;;;;;10.38;1.75;;;;;;;;;;5027166;28;20184;-65
2023/09/30 14:27:31;;;;;;;11.05;2.15;;;;;;;;;;5027558;28;20072;-67
2023/09/30 14:29:56;;;;;;;11.52;1.77;;;;;;;;;;5019653;28;20014;-65